San Andres del Rabanedo, Spain
Current Conditions -  °F | °C
As of 8:00 AM on Sunday 23 Nov 2014 (Local Time) from LELN Reporting Station
Light Rain Light Rain  
Wind Chill: 50°   Ceiling: 5900
Heat Index: 50°   Visibility: 6mi
Dew Point: 46°   Wind: 3mph
Humidity: 87%   Direction: 40°NE
Pressure: 29.85"   Gusts: NA
Location:  42.61°N, 5.62°W
Report Text: LELN 230700Z 04003KT 9999 -RA BKN059 10/08 Q1011
Loading
Personal Weather Stations






























Interactive Weather Map New forecast layout! Learn more

10-Day Weather Forecast

Advertisements
Track Severe Weather on mobile